createdAt,value
2019-02-02T00:01:00.375Z,90.10
2019-02-02T00:04:06.009Z,90.20
2019-02-02T00:07:11.040Z,90.60
2019-02-02T00:10:16.210Z,90.20
2019-02-02T00:13:21.055Z,90.30
2019-02-02T00:16:26.142Z,90.20
2019-02-02T00:19:31.337Z,90.30
2019-02-02T00:22:36.917Z,90.30
2019-02-02T00:25:41.957Z,90.40
2019-02-02T00:28:46.904Z,90.40
2019-02-02T00:31:51.988Z,90.30
2019-02-02T00:34:56.968Z,90.20
2019-02-02T00:38:02.169Z,90.20
2019-02-02T00:41:08.039Z,90.10
2019-02-02T00:44:13.254Z,90.20
2019-02-02T00:47:18.393Z,90.10
2019-02-02T00:50:23.373Z,90.10
2019-02-02T00:53:28.371Z,90.20
2019-02-02T00:56:33.617Z,90.20
2019-02-02T00:59:38.707Z,90.40
2019-02-02T01:02:43.741Z,90.50
2019-02-02T01:05:48.733Z,90.60
2019-02-02T01:08:53.911Z,90.60
2019-02-02T01:11:58.989Z,90.50
2019-02-02T01:15:22.835Z,91.00
2019-02-02T01:18:27.719Z,90.60
2019-02-02T01:21:32.714Z,90.60
2019-02-02T01:24:37.579Z,90.50
2019-02-02T01:27:43.310Z,90.30
2019-02-02T01:30:48.260Z,90.40
2019-02-02T01:33:53.359Z,90.40
2019-02-02T01:36:58.619Z,90.40
2019-02-02T01:40:04.352Z,90.90
2019-02-02T01:43:09.515Z,90.90
2019-02-02T01:46:14.462Z,90.80
2019-02-02T01:49:19.447Z,90.90
2019-02-02T01:52:24.653Z,90.80
2019-02-02T01:55:29.700Z,90.80
2019-02-02T01:58:34.828Z,90.80
2019-02-02T02:01:41.554Z,90.90
2019-02-02T02:04:46.370Z,90.80
2019-02-02T02:07:51.580Z,90.90
2019-02-02T02:10:58.241Z,90.90
2019-02-02T02:14:03.924Z,91.00
2019-02-02T02:17:08.925Z,90.90
2019-02-02T02:20:14.458Z,91.10
2019-02-02T02:23:19.338Z,91.20
2019-02-02T02:26:24.396Z,91.30
2019-02-02T02:29:29.306Z,91.30
2019-02-02T02:32:34.464Z,91.40
2019-02-02T02:35:39.369Z,91.30
2019-02-02T02:38:44.387Z,91.20
2019-02-02T02:41:49.440Z,91.40
2019-02-02T02:44:54.621Z,91.80
2019-02-02T02:47:59.632Z,91.60
2019-02-02T02:51:04.901Z,91.50
2019-02-02T02:54:10.210Z,91.50
2019-02-02T02:57:15.329Z,91.60
2019-02-02T03:00:22.405Z,91.50
2019-02-02T03:03:27.312Z,91.50
2019-02-02T03:06:32.414Z,91.30
2019-02-02T03:09:37.396Z,91.30
2019-02-02T03:12:42.907Z,91.30
2019-02-02T03:15:48.099Z,91.30
2019-02-02T03:18:53.075Z,91.30
2019-02-02T03:21:58.070Z,91.30
2019-02-02T03:25:03.053Z,91.30
2019-02-02T03:28:08.068Z,91.30
2019-02-02T03:31:13.054Z,91.20
2019-02-02T03:34:18.167Z,91.40
2019-02-02T03:37:23.157Z,91.60
2019-02-02T03:40:28.105Z,91.70
2019-02-02T03:43:33.193Z,91.80
2019-02-02T03:46:38.492Z,91.70
2019-02-02T03:49:44.931Z,92.10
2019-02-02T03:52:49.933Z,91.70
2019-02-02T03:55:55.102Z,91.70
2019-02-02T03:59:06.566Z,91.60
2019-02-02T04:02:07.015Z,91.70
2019-02-02T04:05:17.204Z,91.70
2019-02-02T04:08:22.121Z,91.80
2019-02-02T04:11:27.205Z,91.80
2019-02-02T04:14:32.339Z,91.90
2019-02-02T04:17:37.276Z,91.80
2019-02-02T04:20:42.743Z,91.80
2019-02-02T04:23:48.074Z,91.90
2019-02-02T04:26:53.025Z,91.90
2019-02-02T04:29:58.255Z,91.90
2019-02-02T04:33:03.087Z,92.00
2019-02-02T04:36:08.028Z,92.10
2019-02-02T04:39:13.021Z,92.20
2019-02-02T04:42:17.914Z,92.20
2019-02-02T04:45:23.019Z,92.30
2019-02-02T04:48:28.004Z,92.30
2019-02-02T04:51:32.860Z,92.30
2019-02-02T04:54:38.130Z,92.30
2019-02-02T04:57:43.769Z,92.20
2019-02-02T05:00:49.038Z,92.10
2019-02-02T05:03:53.933Z,92.10
2019-02-02T05:06:58.843Z,92.00
2019-02-02T05:10:04.133Z,92.10
2019-02-02T05:13:09.115Z,92.20
2019-02-02T05:16:14.043Z,92.20
2019-02-02T05:19:18.979Z,92.20
2019-02-02T05:22:23.980Z,92.30
2019-02-02T05:25:29.136Z,92.30
2019-02-02T05:28:34.061Z,92.30
2019-02-02T05:31:39.221Z,92.40
2019-02-02T05:34:44.229Z,92.70
2019-02-02T05:37:48.972Z,93.00
2019-02-02T05:40:53.651Z,93.00
2019-02-02T05:43:58.622Z,93.10
2019-02-02T05:47:03.721Z,93.10
2019-02-02T05:50:10.690Z,93.00
2019-02-02T05:53:15.707Z,92.80
2019-02-02T05:56:20.964Z,92.70
2019-02-02T05:59:25.884Z,92.80
2019-02-02T06:02:30.793Z,92.70
2019-02-02T06:05:35.869Z,92.70
2019-02-02T06:08:41.136Z,92.60
2019-02-02T06:11:46.036Z,92.40
2019-02-02T06:14:51.238Z,92.50
2019-02-02T06:17:56.165Z,92.50
2019-02-02T06:21:01.283Z,92.50
2019-02-02T06:24:06.249Z,92.50
2019-02-02T06:27:11.321Z,92.50
2019-02-02T06:30:17.913Z,92.50
2019-02-02T06:33:23.049Z,92.50
2019-02-02T06:36:28.112Z,92.50
2019-02-02T06:39:33.331Z,92.60
2019-02-02T06:42:38.339Z,92.50
2019-02-02T06:45:43.847Z,92.70
2019-02-02T06:48:48.986Z,92.70
2019-02-02T06:51:54.005Z,92.70
2019-02-02T06:54:59.290Z,92.70
2019-02-02T06:58:04.391Z,92.70
2019-02-02T07:01:09.671Z,92.80
2019-02-02T07:04:15.043Z,92.80
2019-02-02T07:07:19.969Z,92.80
2019-02-02T07:10:26.154Z,92.80
2019-02-02T07:13:31.162Z,92.80
2019-02-02T07:16:36.269Z,92.80
2019-02-02T07:19:41.244Z,92.80
2019-02-02T07:22:46.246Z,92.70
2019-02-02T07:25:51.292Z,92.60
2019-02-02T07:28:56.507Z,92.60
2019-02-02T07:32:01.523Z,92.60
2019-02-02T07:35:08.505Z,92.60
2019-02-02T07:38:13.408Z,92.60
2019-02-02T07:41:18.246Z,92.60
2019-02-02T07:44:23.223Z,92.60
2019-02-02T07:47:28.188Z,92.60
2019-02-02T07:50:33.062Z,92.50
2019-02-02T07:53:38.079Z,92.60
2019-02-02T07:56:43.073Z,92.50
2019-02-02T07:59:48.111Z,92.50
2019-02-02T08:02:53.144Z,92.40
2019-02-02T08:05:58.225Z,92.50
2019-02-02T08:09:04.811Z,92.50
2019-02-02T08:12:09.848Z,92.60
2019-02-02T08:15:20.252Z,92.50
2019-02-02T08:18:25.061Z,92.40
2019-02-02T08:21:30.106Z,92.60
2019-02-02T08:24:35.215Z,92.70
2019-02-02T08:27:40.286Z,92.70
2019-02-02T08:30:52.488Z,92.70
2019-02-02T08:33:52.469Z,92.60
2019-02-02T08:36:57.597Z,92.30
2019-02-02T08:40:02.822Z,92.40
2019-02-02T08:43:09.649Z,92.40
2019-02-02T08:46:14.720Z,92.40
2019-02-02T08:49:19.819Z,92.20
2019-02-02T08:52:24.802Z,92.20
2019-02-02T08:55:30.066Z,92.00
2019-02-02T08:58:35.088Z,91.90
2019-02-02T09:01:40.213Z,91.80
2019-02-02T09:04:45.290Z,91.60
2019-02-02T09:07:50.287Z,91.60
2019-02-02T09:10:55.265Z,90.80
2019-02-02T09:14:00.297Z,90.50
2019-02-02T09:17:24.153Z,90.40
2019-02-02T09:20:29.020Z,90.40
2019-02-02T09:23:33.945Z,90.80
2019-02-02T09:26:38.964Z,90.50
2019-02-02T09:29:43.945Z,90.40
2019-02-02T09:32:48.978Z,90.30
2019-02-02T09:35:53.900Z,90.00
2019-02-02T09:38:58.848Z,89.90
2019-02-02T09:42:03.880Z,89.50
2019-02-02T09:45:10.226Z,89.70
2019-02-02T09:48:15.225Z,89.80
2019-02-02T09:51:20.280Z,89.90
2019-02-02T09:54:26.605Z,89.50
2019-02-02T09:57:32.215Z,89.20
2019-02-02T10:00:37.116Z,89.00
2019-02-02T10:03:42.167Z,89.20
2019-02-02T10:06:47.192Z,89.20
2019-02-02T10:10:13.053Z,89.30
2019-02-02T10:13:18.010Z,89.60
2019-02-02T10:16:23.108Z,89.30
2019-02-02T10:19:28.137Z,89.20
2019-02-02T10:22:33.414Z,89.20
2019-02-02T10:25:38.395Z,89.10
2019-02-02T10:28:43.203Z,89.20
2019-02-02T10:31:48.167Z,89.20
2019-02-02T10:34:53.080Z,88.50
2019-02-02T10:37:58.036Z,88.00
2019-02-02T10:41:02.976Z,87.80
2019-02-02T10:44:08.372Z,87.70
2019-02-02T10:47:13.468Z,85.90
2019-02-02T10:50:19.681Z,86.10
2019-02-02T10:53:24.844Z,86.00
2019-02-02T10:56:29.866Z,86.00
2019-02-02T10:59:35.216Z,86.00
2019-02-02T11:02:40.442Z,86.10
2019-02-02T11:05:45.607Z,86.00
2019-02-02T11:08:50.542Z,85.90
2019-02-02T11:11:55.438Z,86.20
2019-02-02T11:15:00.441Z,86.60
2019-02-02T11:18:06.795Z,85.60
2019-02-02T11:21:11.987Z,84.30
2019-02-02T11:24:19.022Z,83.70
2019-02-02T11:27:23.479Z,83.00
2019-02-02T11:30:29.421Z,81.30
2019-02-02T11:33:34.593Z,77.00
2019-02-02T11:36:39.764Z,70.50
2019-02-02T11:39:44.786Z,68.30
2019-02-02T11:42:49.776Z,68.60
2019-02-02T11:45:54.908Z,69.20
2019-02-02T11:48:59.881Z,69.50
2019-02-02T11:52:05.026Z,70.30
2019-02-02T11:55:10.650Z,70.80
2019-02-02T11:58:15.677Z,71.80
2019-02-02T12:01:20.777Z,72.50
2019-02-02T12:04:26.096Z,73.10
2019-02-02T12:07:31.338Z,73.70
2019-02-02T12:10:36.765Z,72.80
2019-02-02T12:13:41.895Z,69.30
2019-02-02T12:16:46.915Z,67.60
2019-02-02T12:19:51.857Z,59.50
2019-02-02T12:22:56.985Z,49.60
2019-02-02T12:26:02.295Z,39.40
2019-02-02T12:29:07.600Z,31.40
2019-02-02T12:32:12.825Z,27.20
2019-02-02T12:35:22.805Z,24.50
2019-02-02T12:38:28.008Z,23.10
2019-02-02T12:41:32.986Z,22.40
2019-02-02T12:44:38.087Z,22.60
2019-02-02T12:47:44.812Z,24.70
2019-02-02T12:50:49.760Z,26.20
2019-02-02T12:53:55.812Z,27.10
2019-02-02T12:57:00.851Z,27.20
2019-02-02T13:00:07.625Z,26.80
2019-02-02T13:03:12.649Z,26.60
2019-02-02T13:06:17.725Z,25.50
2019-02-02T13:09:22.929Z,25.60
2019-02-02T13:12:27.876Z,25.10
2019-02-02T13:15:32.743Z,25.50
2019-02-02T13:18:37.796Z,26.80
2019-02-02T13:21:43.103Z,30.60
2019-02-02T13:24:48.965Z,34.50
2019-02-02T13:27:53.977Z,35.70
2019-02-02T13:30:59.173Z,33.20
2019-02-02T13:34:04.186Z,31.50
2019-02-02T13:37:09.425Z,29.50
2019-02-02T13:40:16.717Z,27.90
2019-02-02T13:43:21.780Z,27.20
2019-02-02T13:46:26.826Z,27.90
2019-02-02T13:49:32.100Z,29.40
2019-02-02T13:52:37.340Z,32.70
2019-02-02T13:55:42.238Z,34.50
2019-02-02T13:58:47.233Z,37.20
2019-02-02T14:01:52.374Z,41.10
2019-02-02T14:04:57.381Z,43.70
2019-02-02T14:08:13.691Z,46.20
2019-02-02T14:11:18.789Z,45.90
2019-02-02T14:14:23.718Z,46.40
2019-02-02T14:17:47.636Z,48.50
2019-02-02T14:20:52.747Z,50.30
2019-02-02T14:23:57.910Z,52.30
2019-02-02T14:27:03.012Z,54.30
2019-02-02T14:30:11.660Z,55.50
2019-02-02T14:33:16.703Z,56.30
2019-02-02T14:36:21.761Z,57.30
2019-02-02T14:39:33.731Z,58.00
2019-02-02T14:42:38.810Z,58.20
2019-02-02T14:45:44.168Z,59.10
2019-02-02T14:48:49.870Z,59.10
2019-02-02T14:51:54.985Z,60.60
2019-02-02T14:55:00.358Z,61.40
2019-02-02T14:58:05.767Z,63.50
2019-02-02T15:01:10.802Z,63.20
2019-02-02T15:04:15.837Z,63.70
2019-02-02T15:07:21.144Z,64.00
2019-02-02T15:10:26.688Z,64.60
2019-02-02T15:13:31.626Z,65.20
2019-02-02T15:16:36.793Z,66.20
2019-02-02T15:19:42.213Z,65.60
2019-02-02T15:22:47.158Z,66.00
2019-02-02T15:25:52.205Z,66.30
2019-02-02T15:28:57.450Z,66.90
2019-02-02T15:32:02.560Z,67.40
2019-02-02T15:35:07.536Z,68.60
2019-02-02T15:38:12.568Z,68.30
2019-02-02T15:41:17.693Z,68.60
2019-02-02T15:44:22.673Z,68.90
2019-02-02T15:47:27.679Z,69.10
2019-02-02T15:50:32.697Z,69.20
2019-02-02T15:53:37.668Z,69.30
2019-02-02T15:56:42.417Z,69.60
2019-02-02T15:59:47.163Z,69.70
2019-02-02T16:02:51.915Z,69.70
2019-02-02T16:05:56.902Z,69.80
2019-02-02T16:09:02.125Z,70.00
2019-02-02T16:12:07.272Z,69.90
2019-02-02T16:15:12.834Z,70.10
2019-02-02T16:18:17.772Z,70.00
2019-02-02T16:21:22.893Z,70.00
2019-02-02T16:24:27.874Z,70.20
2019-02-02T16:27:32.848Z,70.40
2019-02-02T16:30:38.006Z,70.50
2019-02-02T16:33:43.414Z,70.50
2019-02-02T16:36:48.373Z,71.00
2019-02-02T16:39:53.386Z,71.90
2019-02-02T16:42:58.467Z,72.60
2019-02-02T16:46:03.401Z,72.90
2019-02-02T16:49:08.664Z,73.50
2019-02-02T16:52:13.698Z,73.70
2019-02-02T16:55:19.045Z,74.00
2019-02-02T16:58:25.956Z,75.20
2019-02-02T17:01:31.117Z,75.90
2019-02-02T17:04:36.099Z,76.10
2019-02-02T17:07:41.110Z,76.30
2019-02-02T17:10:50.706Z,77.50
2019-02-02T17:13:56.849Z,77.00
2019-02-02T17:17:02.079Z,77.00
2019-02-02T17:20:10.759Z,77.50
2019-02-02T17:23:16.025Z,78.00
2019-02-02T17:26:21.155Z,78.30
2019-02-02T17:29:26.142Z,78.50
2019-02-02T17:32:31.124Z,78.80
2019-02-02T17:35:36.341Z,79.10
2019-02-02T17:38:41.559Z,79.70
2019-02-02T17:41:46.644Z,80.10
2019-02-02T17:44:51.861Z,80.20
2019-02-02T17:47:57.695Z,80.50
2019-02-02T17:51:02.744Z,81.00
2019-02-02T17:54:08.685Z,81.20
2019-02-02T17:57:13.593Z,81.50
2019-02-02T18:00:22.886Z,81.80
2019-02-02T18:03:27.751Z,82.30
2019-02-02T18:06:35.954Z,82.50
2019-02-02T18:09:41.156Z,83.40
2019-02-02T18:12:46.130Z,82.70
2019-02-02T18:15:51.031Z,83.10
2019-02-02T18:18:56.121Z,83.10
2019-02-02T18:22:01.367Z,83.60
2019-02-02T18:25:08.137Z,84.20
2019-02-02T18:28:13.281Z,84.70
2019-02-02T18:31:18.104Z,85.60
2019-02-02T18:34:23.092Z,85.50
2019-02-02T18:37:28.049Z,85.70
2019-02-02T18:40:33.158Z,86.90
2019-02-02T18:43:38.233Z,86.20
2019-02-02T18:46:43.406Z,86.50
2019-02-02T18:49:48.601Z,86.60
2019-02-02T18:52:55.168Z,86.70
2019-02-02T18:56:11.733Z,86.60
2019-02-02T18:59:16.755Z,86.20
2019-02-02T19:02:22.159Z,86.20
2019-02-02T19:05:29.246Z,86.20
2019-02-02T19:08:34.248Z,86.20
2019-02-02T19:11:39.386Z,86.20
2019-02-02T19:14:44.504Z,86.20
2019-02-02T19:17:49.502Z,86.20
2019-02-02T19:20:54.350Z,86.30
2019-02-02T19:24:01.452Z,86.20
2019-02-02T19:27:08.757Z,86.40
2019-02-02T19:30:21.391Z,86.30
2019-02-02T19:33:26.668Z,86.40
2019-02-02T19:36:31.816Z,86.20
2019-02-02T19:39:44.789Z,86.60
2019-02-02T19:42:49.149Z,86.70
2019-02-02T19:45:54.097Z,86.70
2019-02-02T19:48:59.299Z,86.90
2019-02-02T19:52:05.984Z,86.80
2019-02-02T19:55:14.642Z,87.00
2019-02-02T19:58:18.498Z,87.00
2019-02-02T20:01:23.723Z,87.20
2019-02-02T20:04:29.239Z,87.20
2019-02-02T20:07:34.485Z,87.30
2019-02-02T20:10:39.531Z,87.40
2019-02-02T20:13:44.557Z,87.30
2019-02-02T20:16:49.668Z,87.60
2019-02-02T20:19:56.128Z,87.50
2019-02-02T20:23:01.320Z,87.30
2019-02-02T20:26:08.105Z,87.30
2019-02-02T20:29:13.504Z,87.40
2019-02-02T20:32:18.582Z,87.30
2019-02-02T20:35:25.147Z,87.30
2019-02-02T20:38:31.336Z,87.30
2019-02-02T20:41:36.551Z,87.40
2019-02-02T20:44:41.530Z,87.30
2019-02-02T20:47:48.215Z,87.30
2019-02-02T20:50:53.350Z,87.30
2019-02-02T20:53:59.354Z,87.40
2019-02-02T20:57:05.517Z,87.60
2019-02-02T21:00:14.880Z,87.70
2019-02-02T21:03:20.216Z,87.70
2019-02-02T21:06:25.140Z,88.00
2019-02-02T21:09:30.311Z,88.00
2019-02-02T21:12:35.407Z,87.90
2019-02-02T21:15:40.346Z,88.10
2019-02-02T21:18:46.181Z,88.10
2019-02-02T21:21:52.413Z,88.50
2019-02-02T21:24:57.674Z,88.80
2019-02-02T21:28:03.094Z,88.80
2019-02-02T21:31:09.057Z,88.90
2019-02-02T21:34:14.826Z,89.20
2019-02-02T21:37:19.832Z,89.30
2019-02-02T21:40:28.450Z,89.30
2019-02-02T21:43:33.806Z,89.80
2019-02-02T21:46:38.995Z,90.00
2019-02-02T21:49:43.929Z,89.90
2019-02-02T21:52:49.274Z,90.00
2019-02-02T21:55:54.600Z,90.20
2019-02-02T21:58:59.606Z,90.30
2019-02-02T22:02:05.011Z,90.30
2019-02-02T22:05:10.449Z,90.30
2019-02-02T22:08:15.687Z,90.30
2019-02-02T22:11:20.862Z,90.20
2019-02-02T22:14:26.127Z,90.00
2019-02-02T22:17:31.196Z,89.80
2019-02-02T22:20:36.418Z,89.70
2019-02-02T22:23:41.496Z,89.70
2019-02-02T22:26:47.948Z,89.80
2019-02-02T22:29:53.184Z,89.90
2019-02-02T22:32:58.299Z,90.00
2019-02-02T22:36:03.685Z,90.10
2019-02-02T22:39:09.758Z,90.30
2019-02-02T22:42:17.088Z,90.20
2019-02-02T22:45:22.931Z,90.30
2019-02-02T22:48:27.977Z,90.30
2019-02-02T22:51:33.512Z,90.30
2019-02-02T22:54:39.730Z,90.40
2019-02-02T22:57:47.202Z,90.40
2019-02-02T23:01:28.096Z,90.40
2019-02-02T23:05:15.316Z,90.40
2019-02-02T23:08:47.497Z,90.50
2019-02-02T23:12:07.789Z,90.60
2019-02-02T23:15:38.154Z,90.50
2019-02-02T23:18:43.283Z,90.50
2019-02-02T23:21:48.672Z,90.50
2019-02-02T23:24:53.683Z,90.60
2019-02-02T23:27:58.940Z,90.80
2019-02-02T23:31:03.947Z,90.80
2019-02-02T23:34:09.413Z,90.90
2019-02-02T23:37:14.779Z,90.90
2019-02-02T23:40:19.731Z,90.80
2019-02-02T23:43:24.944Z,90.80
2019-02-02T23:46:30.208Z,90.80
2019-02-02T23:49:35.202Z,90.80
2019-02-02T23:52:40.237Z,90.80
2019-02-02T23:55:45.199Z,90.90
2019-02-02T23:58:50.365Z,90.90
